createdAt,value
2018-10-02T00:00:00.056Z,55.70
2018-10-02T00:02:30.176Z,56.10
2018-10-02T00:04:59.680Z,56.10
2018-10-02T00:07:29.779Z,56.10
2018-10-02T00:09:59.613Z,57.20
2018-10-02T00:12:35.132Z,56.60
2018-10-02T00:15:05.382Z,56.60
2018-10-02T00:17:35.175Z,56.30
2018-10-02T00:20:04.771Z,56.30
2018-10-02T00:22:34.980Z,56.30
2018-10-02T00:25:05.033Z,57.10
2018-10-02T00:27:35.074Z,56.70
2018-10-02T00:30:04.343Z,56.90
2018-10-02T00:32:35.061Z,57.50
2018-10-02T00:35:04.496Z,56.80
2018-10-02T00:37:34.552Z,57.10
2018-10-02T00:40:04.352Z,57.50
2018-10-02T00:42:34.375Z,57.70
2018-10-02T00:45:04.544Z,58.20
2018-10-02T00:47:35.430Z,58.50
2018-10-02T00:50:06.032Z,58.20
2018-10-02T00:52:36.047Z,58.60
2018-10-02T00:55:06.406Z,58.60
2018-10-02T00:57:36.078Z,58.90
2018-10-02T01:00:05.864Z,58.40
2018-10-02T01:02:36.026Z,58.10
2018-10-02T01:05:05.779Z,58.20
2018-10-02T01:07:36.616Z,57.90
2018-10-02T01:10:06.675Z,58.40
2018-10-02T01:12:36.739Z,58.60
2018-10-02T01:15:06.196Z,58.40
2018-10-02T01:17:35.179Z,58.30
2018-10-02T01:20:05.230Z,58.10
2018-10-02T01:22:35.295Z,58.00
2018-10-02T01:25:06.624Z,58.00
2018-10-02T01:27:36.555Z,58.00
2018-10-02T01:30:06.588Z,58.50
2018-10-02T01:32:37.047Z,57.90
2018-10-02T01:35:06.621Z,57.80
2018-10-02T01:37:35.760Z,57.60
2018-10-02T01:40:05.397Z,57.30
2018-10-02T01:42:35.620Z,57.50
2018-10-02T01:45:05.500Z,57.50
2018-10-02T01:47:36.142Z,57.60
2018-10-02T01:50:05.679Z,57.60
2018-10-02T01:52:35.915Z,57.50
2018-10-02T01:55:05.313Z,57.50
2018-10-02T01:57:35.493Z,57.20
2018-10-02T02:00:05.768Z,57.20
2018-10-02T02:02:35.254Z,57.00
2018-10-02T02:05:05.272Z,56.70
2018-10-02T02:07:34.924Z,56.80
2018-10-02T02:10:04.376Z,56.90
2018-10-02T02:12:33.797Z,56.60
2018-10-02T02:15:04.059Z,56.60
2018-10-02T02:17:34.227Z,56.40
2018-10-02T02:20:04.088Z,56.20
2018-10-02T02:22:33.911Z,56.30
2018-10-02T02:25:03.427Z,56.80
2018-10-02T02:27:32.965Z,56.50
2018-10-02T02:30:03.186Z,56.80
2018-10-02T02:32:33.256Z,57.40
2018-10-02T02:35:03.263Z,57.30
2018-10-02T02:37:33.545Z,57.10
2018-10-02T02:40:03.565Z,56.70
2018-10-02T02:42:33.994Z,56.50
2018-10-02T02:45:03.088Z,56.40
2018-10-02T02:47:37.211Z,56.70
2018-10-02T02:50:11.428Z,56.60
2018-10-02T02:52:43.309Z,56.30
2018-10-02T02:55:13.417Z,56.50
2018-10-02T02:57:44.278Z,56.40
2018-10-02T03:00:13.602Z,56.80
2018-10-02T03:02:43.515Z,57.20
2018-10-02T03:05:13.512Z,57.40
2018-10-02T03:07:43.639Z,57.20
2018-10-02T03:10:13.266Z,57.10
2018-10-02T03:12:43.107Z,57.20
2018-10-02T03:15:13.366Z,56.90
2018-10-02T03:17:43.315Z,56.70
2018-10-02T03:20:12.855Z,56.70
2018-10-02T03:22:42.647Z,56.60
2018-10-02T03:25:12.999Z,56.70
2018-10-02T03:27:43.224Z,56.90
2018-10-02T03:30:13.438Z,56.90
2018-10-02T03:32:43.050Z,57.10
2018-10-02T03:35:13.171Z,57.30
2018-10-02T03:37:43.261Z,57.20
2018-10-02T03:40:13.001Z,56.90
2018-10-02T03:42:43.311Z,57.00
2018-10-02T03:45:14.487Z,57.00
2018-10-02T03:47:44.884Z,57.00
2018-10-02T03:50:15.517Z,57.70
2018-10-02T03:52:45.804Z,57.50
2018-10-02T03:55:16.278Z,57.40
2018-10-02T03:57:46.079Z,57.20
2018-10-02T04:00:16.350Z,57.20
2018-10-02T04:02:45.755Z,58.00
2018-10-02T04:05:15.364Z,57.50
2018-10-02T04:07:45.439Z,57.60
2018-10-02T04:10:15.351Z,57.60
2018-10-02T04:12:45.147Z,57.50
2018-10-02T04:15:15.249Z,57.30
2018-10-02T04:17:45.200Z,57.30
2018-10-02T04:20:15.264Z,57.30
2018-10-02T04:22:45.331Z,57.30
2018-10-02T04:25:14.810Z,57.20
2018-10-02T04:27:45.489Z,57.50
2018-10-02T04:30:15.561Z,57.50
2018-10-02T04:32:45.089Z,57.40
2018-10-02T04:35:15.092Z,57.70
2018-10-02T04:37:45.093Z,57.80
2018-10-02T04:40:15.593Z,57.50
2018-10-02T04:42:45.778Z,57.80
2018-10-02T04:45:15.799Z,57.40
2018-10-02T04:47:45.500Z,57.50
2018-10-02T04:50:15.548Z,57.50
2018-10-02T04:52:45.835Z,57.40
2018-10-02T04:55:15.506Z,57.10
2018-10-02T04:57:46.374Z,57.50
2018-10-02T05:00:16.762Z,57.20
2018-10-02T05:02:47.232Z,57.20
2018-10-02T05:05:17.704Z,56.80
2018-10-02T05:07:48.207Z,56.40
2018-10-02T05:10:18.353Z,56.20
2018-10-02T05:12:48.996Z,56.20
2018-10-02T05:15:18.784Z,56.30
2018-10-02T05:17:49.180Z,56.40
2018-10-02T05:20:19.505Z,56.40
2018-10-02T05:22:50.360Z,56.70
2018-10-02T05:25:19.965Z,56.80
2018-10-02T05:27:50.143Z,56.70
2018-10-02T05:30:19.801Z,56.70
2018-10-02T05:32:49.409Z,57.00
2018-10-02T05:35:20.357Z,57.20
2018-10-02T05:37:50.253Z,57.20
2018-10-02T05:40:19.679Z,56.90
2018-10-02T05:42:50.511Z,56.50
2018-10-02T05:45:20.328Z,56.50
2018-10-02T05:47:50.408Z,56.80
2018-10-02T05:50:21.440Z,57.30
2018-10-02T05:52:51.982Z,57.40
2018-10-02T05:55:22.196Z,56.80
2018-10-02T05:57:52.464Z,56.50
2018-10-02T06:00:22.023Z,56.40
2018-10-02T06:02:52.489Z,56.50
2018-10-02T06:05:22.514Z,56.90
2018-10-02T06:07:52.280Z,57.00
2018-10-02T06:10:21.428Z,57.20
2018-10-02T06:12:51.949Z,56.90
2018-10-02T06:15:21.317Z,56.60
2018-10-02T06:17:52.853Z,56.60
2018-10-02T06:20:22.539Z,56.80
2018-10-02T06:22:53.050Z,56.80
2018-10-02T06:25:22.983Z,56.70
2018-10-02T06:27:53.071Z,57.00
2018-10-02T06:30:22.956Z,57.20
2018-10-02T06:32:53.260Z,57.30
2018-10-02T06:35:23.135Z,57.00
2018-10-02T06:37:53.092Z,57.00
2018-10-02T06:40:23.116Z,57.00
2018-10-02T06:42:54.135Z,57.00
2018-10-02T06:45:24.982Z,57.40
2018-10-02T06:47:56.683Z,57.30
2018-10-02T06:50:27.000Z,57.30
2018-10-02T06:52:56.793Z,57.00
2018-10-02T06:55:26.151Z,56.80
2018-10-02T06:57:56.977Z,57.00
2018-10-02T07:00:27.462Z,57.30
2018-10-02T07:02:58.380Z,56.80
2018-10-02T07:05:28.217Z,56.30
2018-10-02T07:07:58.462Z,56.40
2018-10-02T07:10:28.382Z,56.20
2018-10-02T07:12:59.122Z,57.20
2018-10-02T07:15:28.864Z,56.40
2018-10-02T07:17:58.394Z,56.70
2018-10-02T07:20:28.333Z,56.50
2018-10-02T07:22:58.489Z,56.70
2018-10-02T07:25:28.281Z,56.30
2018-10-02T07:28:03.965Z,55.80
2018-10-02T07:30:33.585Z,55.80
2018-10-02T07:33:03.192Z,55.00
2018-10-02T07:35:41.940Z,55.20
2018-10-02T07:38:13.443Z,55.10
2018-10-02T07:40:42.744Z,54.90
2018-10-02T07:43:12.096Z,55.00
2018-10-02T07:45:41.771Z,54.10
2018-10-02T07:48:11.211Z,53.90
2018-10-02T07:50:40.975Z,53.60
2018-10-02T07:53:12.034Z,53.70
2018-10-02T07:55:42.251Z,53.20
2018-10-02T07:58:12.815Z,53.30
2018-10-02T08:00:43.271Z,53.10
2018-10-02T08:03:13.545Z,52.80
2018-10-02T08:05:43.776Z,52.50
2018-10-02T08:08:13.323Z,52.80
2018-10-02T08:10:42.877Z,53.60
2018-10-02T08:13:12.847Z,53.30
2018-10-02T08:15:44.124Z,53.20
2018-10-02T08:18:13.906Z,53.40
2018-10-02T08:20:44.366Z,53.80
2018-10-02T08:23:13.924Z,53.40
2018-10-02T08:25:50.865Z,53.70
2018-10-02T08:28:21.777Z,53.70
2018-10-02T08:30:51.667Z,53.40
2018-10-02T08:33:22.245Z,53.70
2018-10-02T08:35:52.342Z,53.40
2018-10-02T08:38:22.392Z,53.00
2018-10-02T08:40:51.680Z,53.30
2018-10-02T08:43:21.904Z,53.40
2018-10-02T08:45:53.114Z,53.30
2018-10-02T08:48:27.081Z,53.60
2018-10-02T08:50:59.125Z,53.40
2018-10-02T08:53:29.960Z,53.20
2018-10-02T08:55:59.792Z,53.30
2018-10-02T08:58:29.056Z,53.20
2018-10-02T09:00:58.919Z,53.10
2018-10-02T09:03:28.379Z,52.80
2018-10-02T09:05:57.839Z,52.80
2018-10-02T09:08:28.004Z,52.70
2018-10-02T09:10:58.407Z,51.80
2018-10-02T09:13:28.912Z,52.30
2018-10-02T09:16:03.251Z,52.00
2018-10-02T09:18:33.191Z,51.70
2018-10-02T09:21:04.472Z,51.90
2018-10-02T09:23:35.170Z,51.50
2018-10-02T09:26:05.288Z,50.90
2018-10-02T09:28:34.880Z,51.00
2018-10-02T09:31:09.895Z,51.00
2018-10-02T09:33:44.540Z,50.60
2018-10-02T09:36:19.178Z,51.00
2018-10-02T09:38:54.412Z,51.00
2018-10-02T09:41:28.596Z,50.40
2018-10-02T09:44:00.244Z,50.60
2018-10-02T09:46:29.751Z,50.80
2018-10-02T09:48:58.562Z,50.60
2018-10-02T09:51:28.217Z,50.40
2018-10-02T09:53:57.555Z,50.00
2018-10-02T09:56:31.301Z,49.90
2018-10-02T09:59:01.513Z,50.10
2018-10-02T10:01:35.956Z,50.10
2018-10-02T10:04:06.277Z,50.40
2018-10-02T10:06:37.573Z,50.40
2018-10-02T10:09:08.484Z,50.50
2018-10-02T10:11:38.766Z,51.40
2018-10-02T10:14:08.261Z,50.80
2018-10-02T10:16:38.009Z,50.60
2018-10-02T10:19:07.400Z,50.00
2018-10-02T10:21:37.117Z,50.00
2018-10-02T10:24:07.078Z,50.10
2018-10-02T10:26:37.297Z,50.40
2018-10-02T10:29:07.508Z,50.20
2018-10-02T10:31:37.643Z,50.60
2018-10-02T10:34:07.969Z,50.70
2018-10-02T10:36:37.782Z,50.00
2018-10-02T10:39:08.967Z,49.90
2018-10-02T10:41:38.353Z,49.80
2018-10-02T10:44:07.786Z,50.10
2018-10-02T10:46:38.208Z,50.00
2018-10-02T10:49:08.514Z,49.60
2018-10-02T10:51:38.590Z,49.60
2018-10-02T10:54:08.828Z,49.70
2018-10-02T10:56:39.091Z,49.70
2018-10-02T10:59:09.919Z,49.10
2018-10-02T11:01:40.570Z,49.10
2018-10-02T11:04:11.797Z,49.20
2018-10-02T11:06:41.271Z,49.00
2018-10-02T11:09:11.962Z,48.90
2018-10-02T11:11:42.394Z,49.10
2018-10-02T11:14:11.756Z,48.60
2018-10-02T11:16:41.957Z,48.90
2018-10-02T11:19:11.531Z,48.50
2018-10-02T11:21:41.243Z,48.60
2018-10-02T11:24:11.014Z,48.80
2018-10-02T11:26:40.867Z,48.80
2018-10-02T11:29:11.210Z,49.00
2018-10-02T11:31:41.524Z,49.50
2018-10-02T11:34:11.708Z,50.00
2018-10-02T11:36:41.772Z,50.00
2018-10-02T11:39:12.852Z,49.80
2018-10-02T11:41:43.480Z,50.10
2018-10-02T11:44:13.889Z,49.20
2018-10-02T11:46:44.303Z,48.10
2018-10-02T11:49:14.733Z,47.70
2018-10-02T11:51:44.439Z,46.70
2018-10-02T11:54:15.747Z,46.80
2018-10-02T11:56:45.665Z,46.40
2018-10-02T11:59:16.603Z,46.50
2018-10-02T12:01:46.748Z,46.30
2018-10-02T12:04:16.827Z,46.30
2018-10-02T12:06:47.619Z,46.60
2018-10-02T12:09:17.613Z,47.10
2018-10-02T12:11:47.348Z,47.80
2018-10-02T12:14:16.781Z,47.20
2018-10-02T12:16:46.833Z,47.60
2018-10-02T12:19:16.626Z,47.60
2018-10-02T12:21:46.426Z,48.50
2018-10-02T12:24:16.163Z,48.80
2018-10-02T12:26:45.312Z,48.00
2018-10-02T12:29:15.052Z,48.20
2018-10-02T12:31:46.196Z,47.30
2018-10-02T12:34:16.422Z,46.90
2018-10-02T12:36:46.608Z,46.30
2018-10-02T12:39:16.498Z,46.70
2018-10-02T12:41:46.380Z,47.10
2018-10-02T12:44:16.795Z,46.40
2018-10-02T12:46:47.527Z,46.60
2018-10-02T12:49:18.374Z,46.60
2018-10-02T12:51:48.966Z,46.20
2018-10-02T12:54:18.620Z,46.10
2018-10-02T12:56:48.886Z,45.30
2018-10-02T12:59:20.014Z,44.70
2018-10-02T13:01:49.519Z,44.50
2018-10-02T13:04:18.383Z,44.50
2018-10-02T13:06:48.694Z,44.90
2018-10-02T13:09:18.466Z,45.30
2018-10-02T13:11:48.677Z,44.90
2018-10-02T13:14:18.768Z,45.00
2018-10-02T13:16:48.910Z,45.20
2018-10-02T13:19:19.294Z,45.40
2018-10-02T13:21:49.682Z,45.60
2018-10-02T13:24:19.194Z,45.50
2018-10-02T13:26:50.244Z,45.20
2018-10-02T13:29:19.928Z,45.30
2018-10-02T13:31:49.488Z,45.20
2018-10-02T13:34:19.290Z,44.90
2018-10-02T13:36:50.993Z,44.80
2018-10-02T13:39:22.605Z,45.10
2018-10-02T13:41:52.637Z,45.20
2018-10-02T13:44:22.742Z,45.40
2018-10-02T13:46:52.860Z,45.00
2018-10-02T13:49:22.185Z,44.50
2018-10-02T13:51:54.500Z,44.60
2018-10-02T13:54:24.600Z,44.10
2018-10-02T13:56:54.780Z,44.30
2018-10-02T13:59:26.523Z,45.40
2018-10-02T14:01:56.209Z,44.60
2018-10-02T14:04:26.405Z,44.60
2018-10-02T14:06:55.788Z,44.60
2018-10-02T14:09:25.504Z,44.40
2018-10-02T14:11:54.973Z,44.50
2018-10-02T14:14:24.437Z,44.70
2018-10-02T14:16:54.174Z,44.90
2018-10-02T14:19:24.180Z,44.90
2018-10-02T14:21:56.854Z,44.30
2018-10-02T14:24:27.335Z,44.50
2018-10-02T14:26:57.447Z,44.80
2018-10-02T14:29:27.236Z,45.00
2018-10-02T14:31:57.586Z,45.00
2018-10-02T14:34:28.384Z,45.20
2018-10-02T14:36:58.597Z,45.30
2018-10-02T14:39:28.919Z,45.60
2018-10-02T14:41:58.955Z,45.60
2018-10-02T14:44:28.837Z,45.90
2018-10-02T14:46:58.911Z,46.00
2018-10-02T14:49:31.381Z,46.40
2018-10-02T14:52:03.035Z,46.50
2018-10-02T14:54:33.268Z,46.80
2018-10-02T14:57:03.154Z,47.00
2018-10-02T14:59:32.640Z,47.10
2018-10-02T15:02:03.218Z,47.20
2018-10-02T15:04:34.111Z,47.20
2018-10-02T15:07:04.370Z,47.40
2018-10-02T15:09:33.978Z,47.50
2018-10-02T15:12:04.034Z,47.70
2018-10-02T15:14:34.454Z,47.90
2018-10-02T15:17:05.997Z,48.30
2018-10-02T15:19:35.068Z,48.80
2018-10-02T15:22:04.954Z,49.70
2018-10-02T15:24:34.756Z,50.00
2018-10-02T15:27:04.801Z,50.60
2018-10-02T15:29:34.959Z,51.40
2018-10-02T15:32:05.121Z,51.60
2018-10-02T15:34:36.196Z,51.90
2018-10-02T15:37:07.709Z,52.30
2018-10-02T15:39:37.181Z,52.40
2018-10-02T15:42:07.544Z,52.40
2018-10-02T15:44:37.550Z,52.50
2018-10-02T15:47:07.288Z,52.90
2018-10-02T15:49:36.800Z,53.60
2018-10-02T15:52:06.953Z,54.20
2018-10-02T15:54:36.663Z,54.40
2018-10-02T15:57:06.771Z,54.40
2018-10-02T15:59:36.855Z,54.50
2018-10-02T16:02:06.519Z,54.40
2018-10-02T16:04:37.334Z,54.70
2018-10-02T16:07:06.860Z,54.60
2018-10-02T16:09:37.168Z,54.60
2018-10-02T16:12:07.154Z,54.80
2018-10-02T16:14:36.663Z,54.70
2018-10-02T16:17:06.221Z,54.70
2018-10-02T16:19:34.938Z,54.70
2018-10-02T16:22:03.982Z,54.80
2018-10-02T16:24:33.948Z,54.70
2018-10-02T16:27:04.080Z,54.70
2018-10-02T16:29:35.250Z,54.40
2018-10-02T16:32:05.472Z,54.60
2018-10-02T16:34:48.978Z,54.40
2018-10-02T16:37:06.857Z,54.50
2018-10-02T16:39:36.709Z,54.70
2018-10-02T16:42:05.995Z,54.50
2018-10-02T16:44:36.481Z,54.20
2018-10-02T16:47:06.512Z,54.00
2018-10-02T16:49:36.935Z,54.50
2018-10-02T16:52:05.843Z,54.00
2018-10-02T16:54:35.954Z,54.30
2018-10-02T16:57:05.858Z,53.90
2018-10-02T16:59:35.578Z,53.60
2018-10-02T17:02:04.975Z,53.30
2018-10-02T17:04:34.736Z,53.20
2018-10-02T17:07:04.398Z,53.00
2018-10-02T17:09:34.818Z,52.60
2018-10-02T17:12:04.748Z,52.40
2018-10-02T17:14:34.580Z,52.30
2018-10-02T17:17:04.632Z,52.50
2018-10-02T17:19:34.748Z,52.50
2018-10-02T17:22:04.781Z,52.10
2018-10-02T17:24:35.177Z,52.30
2018-10-02T17:27:05.755Z,52.60
2018-10-02T17:29:35.673Z,52.80
2018-10-02T17:32:05.217Z,52.70
2018-10-02T17:34:35.077Z,52.70
2018-10-02T17:37:05.111Z,52.50
2018-10-02T17:39:35.192Z,52.50
2018-10-02T17:42:05.520Z,52.80
2018-10-02T17:44:36.019Z,52.90
2018-10-02T17:47:06.118Z,53.10
2018-10-02T17:49:37.140Z,53.50
2018-10-02T17:52:06.717Z,53.90
2018-10-02T17:54:36.888Z,53.90
2018-10-02T17:57:07.398Z,54.20
2018-10-02T17:59:37.417Z,54.70
2018-10-02T18:02:07.333Z,55.20
2018-10-02T18:04:37.042Z,55.80
2018-10-02T18:07:07.084Z,56.00
2018-10-02T18:09:36.846Z,56.20
2018-10-02T18:12:06.318Z,56.20
2018-10-02T18:14:36.845Z,56.20
2018-10-02T18:17:06.828Z,56.30
2018-10-02T18:19:37.628Z,56.20
2018-10-02T18:22:07.511Z,56.50
2018-10-02T18:24:37.577Z,56.30
2018-10-02T18:27:07.799Z,56.10
2018-10-02T18:29:38.143Z,56.00
2018-10-02T18:32:07.595Z,55.90
2018-10-02T18:34:37.981Z,56.00
2018-10-02T18:37:07.638Z,56.10
2018-10-02T18:39:37.684Z,55.80
2018-10-02T18:42:07.108Z,55.80
2018-10-02T18:44:38.139Z,55.80
2018-10-02T18:47:08.304Z,55.50
2018-10-02T18:49:38.200Z,55.40
2018-10-02T18:52:08.472Z,55.40
2018-10-02T18:54:38.959Z,55.10
2018-10-02T18:57:09.024Z,55.10
2018-10-02T18:59:39.593Z,54.60
2018-10-02T19:02:09.948Z,54.50
2018-10-02T19:04:40.808Z,54.40
2018-10-02T19:07:11.599Z,54.60
2018-10-02T19:09:41.696Z,54.60
2018-10-02T19:12:16.537Z,54.60
2018-10-02T19:14:46.611Z,54.40
2018-10-02T19:17:16.728Z,54.20
2018-10-02T19:19:51.901Z,54.00
2018-10-02T19:22:22.740Z,54.30
2018-10-02T19:24:54.350Z,54.10
2018-10-02T19:27:25.011Z,53.80
2018-10-02T19:30:00.192Z,53.80
2018-10-02T19:32:30.614Z,53.80
2018-10-02T19:35:00.955Z,54.10
2018-10-02T19:37:35.575Z,53.60
2018-10-02T19:40:05.429Z,53.60
2018-10-02T19:42:35.887Z,53.60
2018-10-02T19:45:09.976Z,53.30
2018-10-02T19:47:39.811Z,53.30
2018-10-02T19:50:09.751Z,53.40
2018-10-02T19:52:39.785Z,53.50
2018-10-02T19:55:09.280Z,53.60
2018-10-02T19:57:39.319Z,53.90
2018-10-02T20:00:10.351Z,53.90
2018-10-02T20:02:41.044Z,54.00
2018-10-02T20:05:11.267Z,54.00
2018-10-02T20:07:41.007Z,54.10
2018-10-02T20:10:11.325Z,54.60
2018-10-02T20:12:41.324Z,54.80
2018-10-02T20:15:11.672Z,54.20
2018-10-02T20:17:42.277Z,54.20
2018-10-02T20:20:12.508Z,54.40
2018-10-02T20:22:42.849Z,54.40
2018-10-02T20:25:12.646Z,54.30
2018-10-02T20:27:42.548Z,54.20
2018-10-02T20:30:12.219Z,54.20
2018-10-02T20:32:41.791Z,54.30
2018-10-02T20:35:12.396Z,54.30
2018-10-02T20:37:42.445Z,54.40
2018-10-02T20:40:12.407Z,54.50
2018-10-02T20:42:42.313Z,54.70
2018-10-02T20:45:12.377Z,54.90
2018-10-02T20:47:42.321Z,55.10
2018-10-02T20:50:12.059Z,55.20
2018-10-02T20:52:41.912Z,55.20
2018-10-02T20:55:12.531Z,55.20
2018-10-02T20:57:43.275Z,55.10
2018-10-02T21:00:13.819Z,54.80
2018-10-02T21:02:43.859Z,55.00
2018-10-02T21:05:13.956Z,54.70
2018-10-02T21:07:43.444Z,55.40
2018-10-02T21:10:12.979Z,54.90
2018-10-02T21:12:42.418Z,54.80
2018-10-02T21:15:11.945Z,55.00
2018-10-02T21:17:41.497Z,55.00
2018-10-02T21:20:11.604Z,55.00
2018-10-02T21:22:41.186Z,55.10
2018-10-02T21:25:11.315Z,55.30
2018-10-02T21:27:40.753Z,55.40
2018-10-02T21:30:11.156Z,55.40
2018-10-02T21:32:41.023Z,55.50
2018-10-02T21:35:11.318Z,55.40
2018-10-02T21:37:41.496Z,55.60
2018-10-02T21:40:11.422Z,55.80
2018-10-02T21:42:40.552Z,55.70
2018-10-02T21:45:10.567Z,55.80
2018-10-02T21:47:40.234Z,55.90
2018-10-02T21:50:09.861Z,55.90
2018-10-02T21:52:39.992Z,56.00
2018-10-02T21:55:09.876Z,55.80
2018-10-02T21:57:39.974Z,55.90
2018-10-02T22:00:10.867Z,56.00
2018-10-02T22:02:40.336Z,56.00
2018-10-02T22:05:11.155Z,56.10
2018-10-02T22:07:41.401Z,56.20
2018-10-02T22:10:11.015Z,56.00
2018-10-02T22:12:40.764Z,55.90
2018-10-02T22:15:12.259Z,55.80
2018-10-02T22:17:42.208Z,56.20
2018-10-02T22:20:13.411Z,56.00
2018-10-02T22:22:43.324Z,55.90
2018-10-02T22:25:13.003Z,56.00
2018-10-02T22:27:43.259Z,55.80
2018-10-02T22:30:13.609Z,56.00
2018-10-02T22:32:43.398Z,55.90
2018-10-02T22:35:13.054Z,55.80
2018-10-02T22:37:43.093Z,55.80
2018-10-02T22:40:12.786Z,55.60
2018-10-02T22:42:42.826Z,54.30
2018-10-02T22:45:12.274Z,55.30
2018-10-02T22:47:42.160Z,55.50
2018-10-02T22:50:12.169Z,55.30
2018-10-02T22:52:41.712Z,55.30
2018-10-02T22:55:11.374Z,55.60
2018-10-02T22:57:40.851Z,55.30
2018-10-02T23:00:11.036Z,55.10
2018-10-02T23:02:40.148Z,55.30
2018-10-02T23:05:09.756Z,55.30
2018-10-02T23:07:39.360Z,55.40
2018-10-02T23:10:09.365Z,55.30
2018-10-02T23:12:38.893Z,55.50
2018-10-02T23:15:10.394Z,55.80
2018-10-02T23:17:40.385Z,56.10
2018-10-02T23:20:11.024Z,56.80
2018-10-02T23:22:41.152Z,57.00
2018-10-02T23:25:11.231Z,57.20
2018-10-02T23:27:40.904Z,57.50
2018-10-02T23:30:11.395Z,58.60
2018-10-02T23:32:40.727Z,59.30
2018-10-02T23:35:10.127Z,59.80
2018-10-02T23:37:40.496Z,60.00
2018-10-02T23:40:11.125Z,60.60
2018-10-02T23:42:42.326Z,61.30
2018-10-02T23:45:12.388Z,61.00
2018-10-02T23:47:43.120Z,60.40
2018-10-02T23:50:12.996Z,60.00
2018-10-02T23:52:42.649Z,60.60
2018-10-02T23:55:13.865Z,60.70
2018-10-02T23:57:43.418Z,61.10
